Antonios — SY8410 — position and weather

sailwx.info

Track history (hours):
 
Tides and Currents Weather Stations Pressure Air Temp Water Temp Dewpoint Dewpoint Depression Visibility Wind Speed Wind Dir Waves Ship Positions

Antonios

Last reported at 2014-Dec-23 00:33 UTC. Time now 2014-Dec-23 00:55 UTC.
Position N 37°08' E 026°15'.

Length 57 m; draft 4.1 m.

Type: Tanker. MMSI: 239191300.

Date/timePositionNaut miles runAvg speedWind from/ knotsBaromVisibWave heightAir tempDewpointWater temp
2014-Dec-23 00:33N 37°08' E 026°15'8 8.4
2014-Dec-22 23:33N 37°10' E 026°05'9 8.5
2014-Dec-22 22:33N 37°13' E 025°55'9 8.6
2014-Dec-22 21:33N 37°16' E 025°45'8 8.4
2014-Dec-22 20:33N 37°19' E 025°35'8 7.6
2014-Dec-22 19:33N 37°20' E 025°26'7 7.2
2014-Dec-22 18:33N 37°19' E 025°17'8 7.6
2014-Dec-22 17:33N 37°20' E 025°07'8 8.2
2014-Dec-22 16:33N 37°21' E 024°57'8 8.1
2014-Dec-22 15:33N 37°23' E 024°47'8 8.2
2014-Dec-22 14:33N 37°26' E 024°38'9 8.6
2014-Dec-22 13:33N 37°30' E 024°28'8 7.7
2014-Dec-22 12:33N 37°31' E 024°18'8 8.1
2014-Dec-22 11:33N 37°33' E 024°08'21 8.6
2014-Dec-22 09:07N 37°40' E 023°43'5 9.5
2014-Dec-22 08:33N 37°44' E 023°39'8 8.5
2014-Dec-22 07:33N 37°50' E 023°32'9 9.3
2014-Dec-22 06:33N 37°52' E 023°20'1 0.0
2014-Dec-21 17:33N 37°52' E 023°21'1010.3
2014-Dec-21 16:33N 37°50' E 023°34'9 8.8
2014-Dec-21 15:33N 37°45' E 023°43'9 9.2
2014-Dec-21 14:33N 37°39' E 023°51'10 9.9
2014-Dec-21 13:33N 37°35' E 024°03'1010.0
2014-Dec-21 12:33N 37°31' E 024°15'10 9.7
2014-Dec-21 11:33N 37°29' E 024°27'10 9.6
2014-Dec-21 10:33N 37°26' E 024°38'1010.3
2014-Dec-21 09:33N 37°22' E 024°50'1010.3
2014-Dec-21 08:33N 37°19' E 025°02'1010.4
2014-Dec-21 07:33N 37°17' E 025°15'1110.8
2014-Dec-21 06:33N 37°15' E 025°28'1110.7
2014-Dec-21 05:33N 37°12' E 025°41'1010.1
2014-Dec-21 04:33N 37°10' E 025°54'1010.1
2014-Dec-21 03:33N 37°09' E 026°06'1010.2
2014-Dec-21 02:33N 37°05' E 026°18'10 9.8
2014-Dec-21 01:33N 37°02' E 026°30'  
Track history (hours):
 
Tides and Currents Weather Stations Pressure Air Temp Water Temp Dewpoint Dewpoint Depression Visibility Wind Speed Wind Dir Waves Ship Positions

Antonios

Last reported at 2014-Dec-23 00:33 UTC. Time now 2014-Dec-23 00:55 UTC.
Position N 37°08' E 026°15'.

Length 57 m; draft 4.1 m.

Type: Tanker. MMSI: 239191300.

Date/timePositionNaut miles runAvg speedWind from/ knotsBaromVisibWave heightAir tempDewpointWater temp
2014-Dec-23 00:33N 37°08' E 026°15'8 8.4
2014-Dec-22 23:33N 37°10' E 026°05'9 8.5
2014-Dec-22 22:33N 37°13' E 025°55'9 8.6
2014-Dec-22 21:33N 37°16' E 025°45'8 8.4
2014-Dec-22 20:33N 37°19' E 025°35'8 7.6
2014-Dec-22 19:33N 37°20' E 025°26'7 7.2
2014-Dec-22 18:33N 37°19' E 025°17'8 7.6
2014-Dec-22 17:33N 37°20' E 025°07'8 8.2
2014-Dec-22 16:33N 37°21' E 024°57'8 8.1
2014-Dec-22 15:33N 37°23' E 024°47'8 8.2
2014-Dec-22 14:33N 37°26' E 024°38'9 8.6
2014-Dec-22 13:33N 37°30' E 024°28'8 7.7
2014-Dec-22 12:33N 37°31' E 024°18'8 8.1
2014-Dec-22 11:33N 37°33' E 024°08'21 8.6
2014-Dec-22 09:07N 37°40' E 023°43'5 9.5
2014-Dec-22 08:33N 37°44' E 023°39'8 8.5
2014-Dec-22 07:33N 37°50' E 023°32'9 9.3
2014-Dec-22 06:33N 37°52' E 023°20'1 0.0
2014-Dec-21 17:33N 37°52' E 023°21'1010.3
2014-Dec-21 16:33N 37°50' E 023°34'9 8.8
2014-Dec-21 15:33N 37°45' E 023°43'9 9.2
2014-Dec-21 14:33N 37°39' E 023°51'10 9.9
2014-Dec-21 13:33N 37°35' E 024°03'1010.0
2014-Dec-21 12:33N 37°31' E 024°15'10 9.7
2014-Dec-21 11:33N 37°29' E 024°27'10 9.6
2014-Dec-21 10:33N 37°26' E 024°38'1010.3
2014-Dec-21 09:33N 37°22' E 024°50'1010.3
2014-Dec-21 08:33N 37°19' E 025°02'1010.4
2014-Dec-21 07:33N 37°17' E 025°15'1110.8
2014-Dec-21 06:33N 37°15' E 025°28'1110.7
2014-Dec-21 05:33N 37°12' E 025°41'1010.1
2014-Dec-21 04:33N 37°10' E 025°54'1010.1
2014-Dec-21 03:33N 37°09' E 026°06'1010.2
2014-Dec-21 02:33N 37°05' E 026°18'10 9.8
2014-Dec-21 01:33N 37°02' E 026°30'  

Dump ship's entire track history